createdAt,value
2018-02-25T00:01:23.797Z,1038.60
2018-02-25T00:02:50.611Z,1038.61
2018-02-25T00:04:17.539Z,1038.59
2018-02-25T00:05:44.386Z,1038.60
2018-02-25T00:07:11.511Z,1038.58
2018-02-25T00:08:38.536Z,1038.57
2018-02-25T00:10:05.477Z,1038.57
2018-02-25T00:11:32.367Z,1038.60
2018-02-25T00:12:59.400Z,1038.63
2018-02-25T00:14:26.400Z,1038.65
2018-02-25T00:15:53.178Z,1038.66
2018-02-25T00:17:20.205Z,1038.67
2018-02-25T00:18:47.316Z,1038.66
2018-02-25T00:20:14.160Z,1038.66
2018-02-25T00:21:41.136Z,1038.69
2018-02-25T00:23:08.174Z,1038.67
2018-02-25T00:24:35.160Z,1038.67
2018-02-25T00:26:02.113Z,1038.69
2018-02-25T00:27:29.188Z,1038.68
2018-02-25T00:28:56.322Z,1038.68
2018-02-25T00:30:23.117Z,1038.67
2018-02-25T00:31:50.102Z,1038.68
2018-02-25T00:33:16.998Z,1038.70
2018-02-25T00:34:43.832Z,1038.72
2018-02-25T00:36:10.759Z,1038.71
2018-02-25T00:37:37.533Z,1038.70
2018-02-25T00:39:04.437Z,1038.69
2018-02-25T00:40:31.388Z,1038.68
2018-02-25T00:41:58.232Z,1038.67
2018-02-25T00:43:25.361Z,1038.65
2018-02-25T00:45:00.447Z,1038.64
2018-02-25T00:46:19.330Z,1038.61
2018-02-25T00:47:46.431Z,1038.61
2018-02-25T00:49:13.530Z,1038.60
2018-02-25T00:50:40.496Z,1038.60
2018-02-25T00:52:07.511Z,1038.59
2018-02-25T00:53:34.651Z,1038.60
2018-02-25T00:55:01.349Z,1038.59
2018-02-25T00:56:28.223Z,1038.60
2018-02-25T00:57:55.100Z,1038.59
2018-02-25T00:59:21.993Z,1038.59
2018-02-25T01:00:49.029Z,1038.58
2018-02-25T01:02:16.158Z,1038.63
2018-02-25T01:03:43.045Z,1038.64
2018-02-25T01:05:10.144Z,1038.65
2018-02-25T01:06:37.210Z,1038.63
2018-02-25T01:08:04.277Z,1038.62
2018-02-25T01:09:31.185Z,1038.63
2018-02-25T01:10:58.088Z,1038.61
2018-02-25T01:12:25.129Z,1038.63
2018-02-25T01:13:52.081Z,1038.61
2018-02-25T01:15:18.894Z,1038.58
2018-02-25T01:16:46.028Z,1038.57
2018-02-25T01:18:13.056Z,1038.53
2018-02-25T01:19:39.981Z,1038.52
2018-02-25T01:21:06.877Z,1038.49
2018-02-25T01:22:33.823Z,1038.51
2018-02-25T01:24:00.700Z,1038.51
2018-02-25T01:25:27.466Z,1038.52
2018-02-25T01:26:54.371Z,1038.54
2018-02-25T01:28:21.195Z,1038.54
2018-02-25T01:29:48.310Z,1038.52
2018-02-25T01:31:15.494Z,1038.50
2018-02-25T01:32:42.425Z,1038.49
2018-02-25T01:34:09.158Z,1038.51
2018-02-25T01:35:36.106Z,1038.48
2018-02-25T01:37:03.191Z,1038.48
2018-02-25T01:38:30.228Z,1038.47
2018-02-25T01:39:57.171Z,1038.46
2018-02-25T01:41:24.148Z,1038.45
2018-02-25T01:42:51.145Z,1038.44
2018-02-25T01:44:18.252Z,1038.43
2018-02-25T01:45:45.360Z,1038.44
2018-02-25T01:47:12.354Z,1038.45
2018-02-25T01:48:39.386Z,1038.43
2018-02-25T01:50:06.243Z,1038.45
2018-02-25T01:51:33.098Z,1038.43
2018-02-25T01:52:59.957Z,1038.40
2018-02-25T01:54:27.007Z,1038.40
2018-02-25T01:55:54.100Z,1038.39
2018-02-25T01:57:21.184Z,1038.36
2018-02-25T01:58:48.247Z,1038.36
2018-02-25T02:00:15.453Z,1038.35
2018-02-25T02:01:42.400Z,1038.37
2018-02-25T02:03:09.312Z,1038.37
2018-02-25T02:04:36.407Z,1038.38
2018-02-25T02:06:03.342Z,1038.36
2018-02-25T02:07:30.056Z,1038.36
2018-02-25T02:08:56.946Z,1038.35
2018-02-25T02:10:23.917Z,1038.34
2018-02-25T02:11:50.833Z,1038.34
2018-02-25T02:13:17.734Z,1038.32
2018-02-25T02:14:44.888Z,1038.33
2018-02-25T02:16:11.954Z,1038.33
2018-02-25T02:17:38.843Z,1038.34
2018-02-25T02:19:05.778Z,1038.33
2018-02-25T02:20:32.758Z,1038.31
2018-02-25T02:21:59.945Z,1038.31
2018-02-25T02:23:27.081Z,1038.29
2018-02-25T02:24:53.902Z,1038.30
2018-02-25T02:26:20.914Z,1038.29
2018-02-25T02:27:47.651Z,1038.29
2018-02-25T02:29:14.578Z,1038.30
2018-02-25T02:30:41.530Z,1038.31
2018-02-25T02:32:08.405Z,1038.31
2018-02-25T02:33:35.442Z,1038.27
2018-02-25T02:35:02.272Z,1038.27
2018-02-25T02:36:29.246Z,1038.26
2018-02-25T02:37:56.137Z,1038.24
2018-02-25T02:39:23.249Z,1038.25
2018-02-25T02:40:50.191Z,1038.23
2018-02-25T02:42:17.178Z,1038.23
2018-02-25T02:43:44.022Z,1038.26
2018-02-25T02:45:11.003Z,1038.24
2018-02-25T02:46:37.959Z,1038.26
2018-02-25T02:48:05.120Z,1038.27
2018-02-25T02:49:31.955Z,1038.28
2018-02-25T02:50:58.896Z,1038.29
2018-02-25T02:52:25.903Z,1038.28
2018-02-25T02:53:52.660Z,1038.30
2018-02-25T02:55:20.799Z,1038.30
2018-02-25T02:56:46.939Z,1038.32
2018-02-25T02:58:14.826Z,1038.34
2018-02-25T02:59:40.603Z,1038.32
2018-02-25T03:01:07.384Z,1038.31
2018-02-25T03:02:35.342Z,1038.29
2018-02-25T03:04:01.366Z,1038.31
2018-02-25T03:05:28.423Z,1038.30
2018-02-25T03:06:55.211Z,1038.30
2018-02-25T03:08:22.110Z,1038.32
2018-02-25T03:09:48.696Z,1038.32
2018-02-25T03:11:15.622Z,1038.32
2018-02-25T03:12:42.597Z,1038.34
2018-02-25T03:14:09.270Z,1038.31
2018-02-25T03:15:36.363Z,1038.28
2018-02-25T03:17:03.237Z,1038.27
2018-02-25T03:18:30.299Z,1038.27
2018-02-25T03:19:57.177Z,1038.25
2018-02-25T03:21:24.313Z,1038.22
2018-02-25T03:22:51.199Z,1038.23
2018-02-25T03:24:18.265Z,1038.21
2018-02-25T03:25:45.395Z,1038.20
2018-02-25T03:27:12.445Z,1038.19
2018-02-25T03:28:39.486Z,1038.14
2018-02-25T03:30:06.452Z,1038.09
2018-02-25T03:31:33.239Z,1038.07
2018-02-25T03:33:00.146Z,1038.07
2018-02-25T03:34:26.884Z,1038.07
2018-02-25T03:35:53.769Z,1038.04
2018-02-25T03:37:20.869Z,1038.01
2018-02-25T03:38:47.897Z,1038.01
2018-02-25T03:40:14.629Z,1038.03
2018-02-25T03:41:41.542Z,1038.02
2018-02-25T03:43:08.424Z,1038.00
2018-02-25T03:44:35.470Z,1038.00
2018-02-25T03:46:02.409Z,1037.99
2018-02-25T03:47:29.376Z,1037.97
2018-02-25T03:48:56.330Z,1037.93
2018-02-25T03:50:23.281Z,1037.92
2018-02-25T03:51:50.064Z,1037.89
2018-02-25T03:53:16.921Z,1037.92
2018-02-25T03:54:43.875Z,1037.97
2018-02-25T03:56:10.771Z,1038.02
2018-02-25T03:57:37.664Z,1038.04
2018-02-25T03:59:04.607Z,1038.03
2018-02-25T04:00:31.568Z,1038.05
2018-02-25T04:01:58.717Z,1038.08
2018-02-25T04:03:25.731Z,1038.12
2018-02-25T04:04:52.855Z,1038.17
2018-02-25T04:06:19.910Z,1038.17
2018-02-25T04:07:46.931Z,1038.19
2018-02-25T04:09:13.927Z,1038.15
2018-02-25T04:10:40.924Z,1038.16
2018-02-25T04:12:07.896Z,1038.18
2018-02-25T04:13:34.804Z,1038.19
2018-02-25T04:15:01.408Z,1038.19
2018-02-25T04:16:28.553Z,1038.18
2018-02-25T04:17:55.563Z,1038.18
2018-02-25T04:19:22.410Z,1038.15
2018-02-25T04:20:49.463Z,1038.15
2018-02-25T04:22:16.553Z,1038.11
2018-02-25T04:23:43.449Z,1038.12
2018-02-25T04:25:10.458Z,1038.13
2018-02-25T04:26:37.371Z,1038.16
2018-02-25T04:28:04.526Z,1038.14
2018-02-25T04:29:31.294Z,1038.13
2018-02-25T04:30:58.514Z,1038.16
2018-02-25T04:32:25.307Z,1038.18
2018-02-25T04:33:52.301Z,1038.18
2018-02-25T04:35:19.246Z,1038.15
2018-02-25T04:36:46.203Z,1038.16
2018-02-25T04:38:13.362Z,1038.14
2018-02-25T04:39:40.178Z,1038.13
2018-02-25T04:41:07.112Z,1038.11
2018-02-25T04:42:33.934Z,1038.13
2018-02-25T04:44:00.867Z,1038.07
2018-02-25T04:45:27.830Z,1038.04
2018-02-25T04:46:54.917Z,1038.05
2018-02-25T04:48:22.071Z,1038.02
2018-02-25T04:49:49.217Z,1037.98
2018-02-25T04:51:16.208Z,1037.99
2018-02-25T04:52:43.196Z,1037.98
2018-02-25T04:54:10.124Z,1037.97
2018-02-25T04:55:37.011Z,1037.94
2018-02-25T04:57:03.926Z,1037.91
2018-02-25T04:58:30.657Z,1037.90
2018-02-25T04:59:57.759Z,1037.90
2018-02-25T05:01:24.578Z,1037.88
2018-02-25T05:02:51.440Z,1037.86
2018-02-25T05:04:18.499Z,1037.88
2018-02-25T05:05:45.596Z,1037.88
2018-02-25T05:07:12.609Z,1037.87
2018-02-25T05:08:39.428Z,1037.86
2018-02-25T05:10:06.391Z,1037.85
2018-02-25T05:11:33.384Z,1037.82
2018-02-25T05:12:59.997Z,1037.82
2018-02-25T05:14:26.965Z,1037.82
2018-02-25T05:15:53.994Z,1037.81
2018-02-25T05:17:20.836Z,1037.82
2018-02-25T05:18:47.890Z,1037.77
2018-02-25T05:20:14.839Z,1037.79
2018-02-25T05:21:41.851Z,1037.78
2018-02-25T05:23:08.934Z,1037.82
2018-02-25T05:24:35.943Z,1037.85
2018-02-25T05:26:02.991Z,1037.83
2018-02-25T05:27:29.882Z,1037.86
2018-02-25T05:28:56.969Z,1037.82
2018-02-25T05:30:23.862Z,1037.84
2018-02-25T05:31:50.927Z,1037.83
2018-02-25T05:33:17.737Z,1037.83
2018-02-25T05:34:44.724Z,1037.83
2018-02-25T05:36:11.620Z,1037.78
2018-02-25T05:37:38.585Z,1037.81
2018-02-25T05:39:05.696Z,1037.77
2018-02-25T05:40:32.503Z,1037.78
2018-02-25T05:41:59.443Z,1037.78
2018-02-25T05:43:26.252Z,1037.80
2018-02-25T05:44:53.128Z,1037.82
2018-02-25T05:46:20.243Z,1037.81
2018-02-25T05:47:47.324Z,1037.81
2018-02-25T05:49:14.261Z,1037.76
2018-02-25T05:50:41.176Z,1037.79
2018-02-25T05:52:08.126Z,1037.80
2018-02-25T05:53:35.130Z,1037.80
2018-02-25T05:55:01.962Z,1037.81
2018-02-25T05:56:28.865Z,1037.82
2018-02-25T05:57:55.849Z,1037.81
2018-02-25T05:59:22.739Z,1037.77
2018-02-25T06:00:49.589Z,1037.76
2018-02-25T06:02:16.587Z,1037.77
2018-02-25T06:03:43.663Z,1037.76
2018-02-25T06:05:10.809Z,1037.76
2018-02-25T06:06:37.723Z,1037.76
2018-02-25T06:08:04.432Z,1037.80
2018-02-25T06:09:31.394Z,1037.80
2018-02-25T06:10:58.573Z,1037.80
2018-02-25T06:12:25.527Z,1037.82
2018-02-25T06:13:52.487Z,1037.81
2018-02-25T06:15:19.511Z,1037.82
2018-02-25T06:16:46.677Z,1037.82
2018-02-25T06:18:13.480Z,1037.83
2018-02-25T06:19:40.385Z,1037.83
2018-02-25T06:21:07.316Z,1037.81
2018-02-25T06:22:34.190Z,1037.82
2018-02-25T06:24:01.016Z,1037.81
2018-02-25T06:25:28.036Z,1037.85
2018-02-25T06:26:55.037Z,1037.88
2018-02-25T06:28:22.032Z,1037.89
2018-02-25T06:29:49.199Z,1037.90
2018-02-25T06:31:16.361Z,1037.91
2018-02-25T06:32:43.340Z,1037.93
2018-02-25T06:34:10.272Z,1037.88
2018-02-25T06:35:37.119Z,1037.82
2018-02-25T06:37:04.006Z,1037.84
2018-02-25T06:38:30.771Z,1037.87
2018-02-25T06:39:57.866Z,1037.89
2018-02-25T06:41:24.809Z,1037.90
2018-02-25T06:42:51.650Z,1037.88
2018-02-25T06:44:18.903Z,1037.87
2018-02-25T06:45:45.897Z,1037.86
2018-02-25T06:47:12.900Z,1037.84
2018-02-25T06:48:39.826Z,1037.85
2018-02-25T06:50:06.743Z,1037.84
2018-02-25T06:51:33.721Z,1037.84
2018-02-25T06:53:00.396Z,1037.83
2018-02-25T06:54:27.489Z,1037.80
2018-02-25T06:55:54.408Z,1037.79
2018-02-25T06:57:21.456Z,1037.79
2018-02-25T06:58:48.559Z,1037.81
2018-02-25T07:00:15.577Z,1037.82
2018-02-25T07:01:42.457Z,1037.79
2018-02-25T07:03:09.145Z,1037.76
2018-02-25T07:04:36.282Z,1037.78
2018-02-25T07:06:03.148Z,1037.77
2018-02-25T07:07:29.770Z,1037.76
2018-02-25T07:08:56.971Z,1037.75
2018-02-25T07:10:24.031Z,1037.72
2018-02-25T07:11:50.937Z,1037.69
2018-02-25T07:13:17.971Z,1037.70
2018-02-25T07:14:45.018Z,1037.70
2018-02-25T07:16:12.312Z,1037.70
2018-02-25T07:17:39.192Z,1037.70
2018-02-25T07:19:06.308Z,1037.71
2018-02-25T07:20:33.554Z,1037.72
2018-02-25T07:22:00.221Z,1037.70
2018-02-25T07:23:27.327Z,1037.70
2018-02-25T07:24:54.328Z,1037.72
2018-02-25T07:26:21.333Z,1037.74
2018-02-25T07:27:48.373Z,1037.73
2018-02-25T07:29:15.411Z,1037.72
2018-02-25T07:30:42.530Z,1037.71
2018-02-25T07:32:09.507Z,1037.72
2018-02-25T07:33:36.336Z,1037.73
2018-02-25T07:35:03.285Z,1037.71
2018-02-25T07:36:29.992Z,1037.73
2018-02-25T07:37:57.162Z,1037.73
2018-02-25T07:39:24.331Z,1037.74
2018-02-25T07:40:51.447Z,1037.70
2018-02-25T07:42:18.402Z,1037.72
2018-02-25T07:43:45.504Z,1037.72
2018-02-25T07:45:12.396Z,1037.72
2018-02-25T07:46:39.406Z,1037.68
2018-02-25T07:48:06.410Z,1037.65
2018-02-25T07:49:33.116Z,1037.63
2018-02-25T07:50:59.746Z,1037.63
2018-02-25T07:52:26.911Z,1037.62
2018-02-25T07:53:53.762Z,1037.61
2018-02-25T07:55:20.791Z,1037.60
2018-02-25T07:56:47.725Z,1037.61
2018-02-25T07:58:14.864Z,1037.58
2018-02-25T07:59:41.971Z,1037.59
2018-02-25T08:01:08.939Z,1037.57
2018-02-25T08:02:36.064Z,1037.58
2018-02-25T08:04:03.094Z,1037.57
2018-02-25T08:05:30.101Z,1037.56
2018-02-25T08:06:57.081Z,1037.55
2018-02-25T08:08:24.063Z,1037.53
2018-02-25T08:09:51.097Z,1037.54
2018-02-25T08:11:18.183Z,1037.54
2018-02-25T08:12:45.312Z,1037.54
2018-02-25T08:14:12.345Z,1037.54
2018-02-25T08:15:39.421Z,1037.53
2018-02-25T08:17:06.597Z,1037.53
2018-02-25T08:18:33.662Z,1037.54
2018-02-25T08:20:00.616Z,1037.52
2018-02-25T08:21:27.643Z,1037.52
2018-02-25T08:22:54.666Z,1037.51
2018-02-25T08:24:21.722Z,1037.53
2018-02-25T08:25:48.848Z,1037.51
2018-02-25T08:27:15.887Z,1037.52
2018-02-25T08:28:43.016Z,1037.52
2018-02-25T08:30:10.037Z,1037.53
2018-02-25T08:31:36.946Z,1037.54
2018-02-25T08:33:04.059Z,1037.54
2018-02-25T08:34:30.917Z,1037.54
2018-02-25T08:35:57.947Z,1037.53
2018-02-25T08:37:25.060Z,1037.50
2018-02-25T08:38:52.072Z,1037.50
2018-02-25T08:40:19.150Z,1037.50
2018-02-25T08:41:46.180Z,1037.48
2018-02-25T08:43:13.334Z,1037.51
2018-02-25T08:44:40.242Z,1037.47
2018-02-25T08:46:07.192Z,1037.46
2018-02-25T08:47:34.291Z,1037.45
2018-02-25T08:49:01.171Z,1037.46
2018-02-25T08:50:28.117Z,1037.46
2018-02-25T08:51:58.133Z,1037.44
2018-02-25T08:53:22.076Z,1037.47
2018-02-25T08:54:49.088Z,1037.47
2018-02-25T08:56:16.107Z,1037.47
2018-02-25T08:57:43.005Z,1037.45
2018-02-25T08:59:10.127Z,1037.43
2018-02-25T09:00:37.221Z,1037.45
2018-02-25T09:02:04.394Z,1037.43
2018-02-25T09:03:31.383Z,1037.43
2018-02-25T09:04:58.456Z,1037.45
2018-02-25T09:06:25.290Z,1037.43
2018-02-25T09:07:52.369Z,1037.44
2018-02-25T09:09:19.397Z,1037.45
2018-02-25T09:10:46.598Z,1037.42
2018-02-25T09:12:13.563Z,1037.42
2018-02-25T09:13:40.588Z,1037.41
2018-02-25T09:15:07.603Z,1037.40
2018-02-25T09:16:34.668Z,1037.40
2018-02-25T09:18:01.683Z,1037.39
2018-02-25T09:19:28.670Z,1037.37
2018-02-25T09:20:55.817Z,1037.38
2018-02-25T09:22:22.970Z,1037.38
2018-02-25T09:23:50.023Z,1037.39
2018-02-25T09:25:16.984Z,1037.37
2018-02-25T09:26:44.058Z,1037.37
2018-02-25T09:28:11.145Z,1037.34
2018-02-25T09:29:38.085Z,1037.33
2018-02-25T09:31:05.034Z,1037.35
2018-02-25T09:32:31.911Z,1037.36
2018-02-25T09:33:58.930Z,1037.35
2018-02-25T09:35:26.008Z,1037.34
2018-02-25T09:36:53.154Z,1037.32
2018-02-25T09:38:20.397Z,1037.32
2018-02-25T09:39:47.425Z,1037.31
2018-02-25T09:41:14.575Z,1037.29
2018-02-25T09:42:41.515Z,1037.29
2018-02-25T09:44:08.575Z,1037.29
2018-02-25T09:45:35.448Z,1037.28
2018-02-25T09:47:02.326Z,1037.28
2018-02-25T09:48:29.380Z,1037.29
2018-02-25T09:49:56.192Z,1037.26
2018-02-25T09:51:23.223Z,1037.25
2018-02-25T09:52:50.136Z,1037.25
2018-02-25T09:54:17.337Z,1037.22
2018-02-25T09:55:44.172Z,1037.20
2018-02-25T09:57:11.127Z,1037.18
2018-02-25T09:58:38.122Z,1037.17
2018-02-25T10:00:05.165Z,1037.18
2018-02-25T10:01:32.033Z,1037.17
2018-02-25T10:02:58.920Z,1037.16
2018-02-25T10:04:26.127Z,1037.14
2018-02-25T10:05:53.138Z,1037.15
2018-02-25T10:07:20.146Z,1037.15
2018-02-25T10:08:47.171Z,1037.13
2018-02-25T10:10:14.284Z,1037.15
2018-02-25T10:11:41.208Z,1037.14
2018-02-25T10:13:08.031Z,1037.17
2018-02-25T10:14:34.850Z,1037.13
2018-02-25T10:16:01.783Z,1037.14
2018-02-25T10:17:28.637Z,1037.14
2018-02-25T10:18:55.756Z,1037.13
2018-02-25T10:20:22.751Z,1037.14
2018-02-25T10:21:49.707Z,1037.14
2018-02-25T10:23:16.745Z,1037.12
2018-02-25T10:24:43.782Z,1037.10
2018-02-25T10:26:10.879Z,1037.10
2018-02-25T10:27:37.839Z,1037.12
2018-02-25T10:29:04.848Z,1037.11
2018-02-25T10:30:31.755Z,1037.12
2018-02-25T10:31:58.553Z,1037.11
2018-02-25T10:33:25.474Z,1037.09
2018-02-25T10:34:52.422Z,1037.06
2018-02-25T10:36:19.569Z,1037.07
2018-02-25T10:37:46.740Z,1037.07
2018-02-25T10:39:13.778Z,1037.08
2018-02-25T10:40:40.729Z,1037.05
2018-02-25T10:42:07.752Z,1037.03
2018-02-25T10:43:34.640Z,1037.01
2018-02-25T10:45:01.353Z,1037.00
2018-02-25T10:46:28.228Z,1036.97
2018-02-25T10:47:55.149Z,1036.96
2018-02-25T10:49:22.284Z,1036.93
2018-02-25T10:50:49.351Z,1036.91
2018-02-25T10:52:16.474Z,1036.90
2018-02-25T10:53:43.417Z,1036.87
2018-02-25T10:55:10.484Z,1036.84
2018-02-25T10:56:37.678Z,1036.82
2018-02-25T10:58:04.524Z,1036.79
2018-02-25T10:59:31.274Z,1036.79
2018-02-25T11:00:58.332Z,1036.75
2018-02-25T11:02:25.135Z,1036.77
2018-02-25T11:03:51.983Z,1036.78
2018-02-25T11:05:18.721Z,1036.69
2018-02-25T11:06:45.875Z,1036.72
2018-02-25T11:08:12.833Z,1036.69
2018-02-25T11:09:39.721Z,1036.67
2018-02-25T11:11:06.412Z,1036.65
2018-02-25T11:12:33.512Z,1036.62
2018-02-25T11:14:00.288Z,1036.61
2018-02-25T11:15:27.566Z,1036.57
2018-02-25T11:16:54.876Z,1036.58
2018-02-25T11:18:21.695Z,1036.59
2018-02-25T11:19:48.743Z,1036.57
2018-02-25T11:21:15.805Z,1036.55
2018-02-25T11:22:42.755Z,1036.54
2018-02-25T11:24:09.800Z,1036.54
2018-02-25T11:25:36.845Z,1036.54
2018-02-25T11:27:03.917Z,1036.54
2018-02-25T11:28:30.677Z,1036.51
2018-02-25T11:29:57.753Z,1036.49
2018-02-25T11:31:24.796Z,1036.49
2018-02-25T11:32:51.879Z,1036.45
2018-02-25T11:34:18.841Z,1036.46
2018-02-25T11:35:45.777Z,1036.45
2018-02-25T11:37:13.047Z,1036.46
2018-02-25T11:38:40.200Z,1036.45
2018-02-25T11:40:07.072Z,1036.47
2018-02-25T11:41:33.798Z,1036.48
2018-02-25T11:43:00.741Z,1036.47
2018-02-25T11:44:27.858Z,1036.44
2018-02-25T11:45:54.852Z,1036.43
2018-02-25T11:47:21.896Z,1036.43
2018-02-25T11:48:48.636Z,1036.42
2018-02-25T11:50:15.816Z,1036.42
2018-02-25T11:51:42.816Z,1036.37
2018-02-25T11:53:09.990Z,1036.38
2018-02-25T11:54:36.883Z,1036.37
2018-02-25T11:56:03.727Z,1036.33
2018-02-25T11:57:30.407Z,1036.33
2018-02-25T11:58:57.267Z,1036.33
2018-02-25T12:00:24.346Z,1036.35
2018-02-25T12:01:51.389Z,1036.32
2018-02-25T12:03:18.411Z,1036.33
2018-02-25T12:04:45.468Z,1036.37
2018-02-25T12:06:12.442Z,1036.37
2018-02-25T12:07:39.491Z,1036.37
2018-02-25T12:09:06.536Z,1036.38
2018-02-25T12:10:33.566Z,1036.37
2018-02-25T12:12:00.349Z,1036.36
2018-02-25T12:13:27.327Z,1036.37
2018-02-25T12:14:59.275Z,1036.33
2018-02-25T12:16:21.259Z,1036.30
2018-02-25T12:17:48.471Z,1036.31
2018-02-25T12:19:15.645Z,1036.28
2018-02-25T12:20:42.720Z,1036.29
2018-02-25T12:22:09.815Z,1036.25
2018-02-25T12:23:36.848Z,1036.26
2018-02-25T12:25:03.835Z,1036.26
2018-02-25T12:26:30.856Z,1036.25
2018-02-25T12:27:57.873Z,1036.26
2018-02-25T12:29:25.093Z,1036.24
2018-02-25T12:30:52.201Z,1036.24
2018-02-25T12:32:19.151Z,1036.22
2018-02-25T12:33:46.244Z,1036.20
2018-02-25T12:35:13.202Z,1036.22
2018-02-25T12:36:40.141Z,1036.21
2018-02-25T12:38:07.080Z,1036.17
2018-02-25T12:39:33.922Z,1036.16
2018-02-25T12:41:00.830Z,1036.15
2018-02-25T12:42:27.948Z,1036.13
2018-02-25T12:43:54.939Z,1036.14
2018-02-25T12:45:22.177Z,1036.10
2018-02-25T12:46:49.099Z,1036.05
2018-02-25T12:48:16.203Z,1036.03
2018-02-25T12:49:43.217Z,1036.01
2018-02-25T12:51:10.296Z,1036.00
2018-02-25T12:52:37.186Z,1036.02
2018-02-25T12:54:04.257Z,1036.04
2018-02-25T12:55:30.996Z,1036.04
2018-02-25T12:56:58.254Z,1036.03
2018-02-25T12:58:25.277Z,1036.02
2018-02-25T12:59:52.491Z,1036.05
2018-02-25T13:01:19.712Z,1036.02
2018-02-25T13:02:46.792Z,1036.01
2018-02-25T13:04:13.827Z,1036.00
2018-02-25T13:05:40.848Z,1035.98
2018-02-25T13:07:07.719Z,1035.97
2018-02-25T13:08:35.018Z,1035.95
2018-02-25T13:10:02.079Z,1035.94
2018-02-25T13:11:29.176Z,1035.92
2018-02-25T13:12:56.313Z,1035.90
2018-02-25T13:14:23.243Z,1035.91
2018-02-25T13:15:50.251Z,1035.94
2018-02-25T13:17:17.286Z,1035.95
2018-02-25T13:18:44.296Z,1035.95
2018-02-25T13:20:11.332Z,1035.97
2018-02-25T13:21:38.447Z,1035.98
2018-02-25T13:23:05.803Z,1035.95
2018-02-25T13:24:32.717Z,1035.92
2018-02-25T13:25:59.919Z,1035.93
2018-02-25T13:27:27.011Z,1035.90
2018-02-25T13:28:54.126Z,1035.92
2018-02-25T13:30:21.150Z,1035.91
2018-02-25T13:31:48.188Z,1035.87
2018-02-25T13:33:15.106Z,1035.88
2018-02-25T13:34:42.036Z,1035.87
2018-02-25T13:36:09.000Z,1035.90
2018-02-25T13:37:36.140Z,1035.85
2018-02-25T13:39:02.926Z,1035.84
2018-02-25T13:40:29.954Z,1035.88
2018-02-25T13:41:57.154Z,1035.84
2018-02-25T13:43:24.168Z,1035.82
2018-02-25T13:44:51.282Z,1035.82
2018-02-25T13:46:18.401Z,1035.78
2018-02-25T13:47:45.474Z,1035.76
2018-02-25T13:49:12.338Z,1035.74
2018-02-25T13:50:39.432Z,1035.74
2018-02-25T13:52:06.569Z,1035.75
2018-02-25T13:53:33.680Z,1035.70
2018-02-25T13:55:00.551Z,1035.69
2018-02-25T13:56:27.672Z,1035.68
2018-02-25T13:57:54.692Z,1035.69
2018-02-25T13:59:21.714Z,1035.69
2018-02-25T14:00:48.811Z,1035.69
2018-02-25T14:02:15.992Z,1035.65
2018-02-25T14:03:42.926Z,1035.61
2018-02-25T14:05:10.038Z,1035.62
2018-02-25T14:06:37.139Z,1035.60
2018-02-25T14:08:03.959Z,1035.58
2018-02-25T14:09:30.925Z,1035.63
2018-02-25T14:10:58.129Z,1035.62
2018-02-25T14:12:25.210Z,1035.62
2018-02-25T14:13:52.126Z,1035.65
2018-02-25T14:15:19.218Z,1035.63
2018-02-25T14:16:46.462Z,1035.63
2018-02-25T14:18:13.534Z,1035.63
2018-02-25T14:19:40.661Z,1035.59
2018-02-25T14:21:07.496Z,1035.59
2018-02-25T14:22:34.330Z,1035.59
2018-02-25T14:24:04.383Z,1035.59
2018-02-25T14:25:28.290Z,1035.59
2018-02-25T14:26:55.494Z,1035.58
2018-02-25T14:28:22.538Z,1035.55
2018-02-25T14:29:49.596Z,1035.57
2018-02-25T14:31:16.751Z,1035.56
2018-02-25T14:32:43.718Z,1035.57
2018-02-25T14:34:10.644Z,1035.56
2018-02-25T14:35:37.733Z,1035.56
2018-02-25T14:37:04.742Z,1035.55
2018-02-25T14:38:31.720Z,1035.57
2018-02-25T14:39:58.674Z,1035.56
2018-02-25T14:41:25.816Z,1035.56
2018-02-25T14:42:52.713Z,1035.57
2018-02-25T14:44:19.849Z,1035.57
2018-02-25T14:45:47.109Z,1035.57
2018-02-25T14:47:14.059Z,1035.58
2018-02-25T14:48:41.228Z,1035.56
2018-02-25T14:50:08.249Z,1035.57
2018-02-25T14:51:35.330Z,1035.60
2018-02-25T14:53:02.211Z,1035.58
2018-02-25T14:54:29.018Z,1035.57
2018-02-25T14:55:56.222Z,1035.57
2018-02-25T14:57:23.518Z,1035.57
2018-02-25T14:58:50.245Z,1035.56
2018-02-25T15:00:17.418Z,1035.55
2018-02-25T15:01:44.385Z,1035.56
2018-02-25T15:03:11.564Z,1035.56
2018-02-25T15:04:38.615Z,1035.57
2018-02-25T15:06:05.746Z,1035.57
2018-02-25T15:07:32.901Z,1035.55
2018-02-25T15:08:59.850Z,1035.59
2018-02-25T15:10:26.883Z,1035.56
2018-02-25T15:11:54.126Z,1035.58
2018-02-25T15:13:21.236Z,1035.58
2018-02-25T15:14:48.248Z,1035.58
2018-02-25T15:16:15.151Z,1035.58
2018-02-25T15:17:42.164Z,1035.60
2018-02-25T15:19:09.085Z,1035.60
2018-02-25T15:20:36.001Z,1035.63
2018-02-25T15:22:02.926Z,1035.61
2018-02-25T15:23:29.797Z,1035.63
2018-02-25T15:24:56.824Z,1035.63
2018-02-25T15:26:24.039Z,1035.61
2018-02-25T15:27:51.111Z,1035.60
2018-02-25T15:29:18.319Z,1035.59
2018-02-25T15:30:45.378Z,1035.59
2018-02-25T15:32:12.174Z,1035.60
2018-02-25T15:33:39.224Z,1035.61
2018-02-25T15:35:06.199Z,1035.61
2018-02-25T15:36:33.166Z,1035.60
2018-02-25T15:37:59.906Z,1035.59
2018-02-25T15:39:26.984Z,1035.59
2018-02-25T15:40:53.674Z,1035.62
2018-02-25T15:42:20.676Z,1035.65
2018-02-25T15:43:47.794Z,1035.62
2018-02-25T15:45:14.740Z,1035.63
2018-02-25T15:46:41.624Z,1035.62
2018-02-25T15:48:08.572Z,1035.64
2018-02-25T15:49:35.533Z,1035.63
2018-02-25T15:51:02.582Z,1035.64
2018-02-25T15:52:29.649Z,1035.65
2018-02-25T15:53:56.475Z,1035.65
2018-02-25T15:55:23.806Z,1035.65
2018-02-25T15:56:50.820Z,1035.64
2018-02-25T15:58:17.782Z,1035.63
2018-02-25T15:59:44.833Z,1035.62
2018-02-25T16:01:11.801Z,1035.62
2018-02-25T16:02:38.591Z,1035.64
2018-02-25T16:04:05.371Z,1035.65
2018-02-25T16:05:32.093Z,1035.64
2018-02-25T16:06:59.247Z,1035.66
2018-02-25T16:08:26.261Z,1035.63
2018-02-25T16:09:53.247Z,1035.63
2018-02-25T16:11:20.355Z,1035.65
2018-02-25T16:12:47.306Z,1035.66
2018-02-25T16:14:14.501Z,1035.65
2018-02-25T16:15:41.546Z,1035.64
2018-02-25T16:17:08.408Z,1035.63
2018-02-25T16:18:35.491Z,1035.62
2018-02-25T16:20:02.517Z,1035.64
2018-02-25T16:21:29.779Z,1035.66
2018-02-25T16:22:56.698Z,1035.70
2018-02-25T16:24:23.697Z,1035.69
2018-02-25T16:25:50.832Z,1035.71
2018-02-25T16:27:17.834Z,1035.73
2018-02-25T16:28:44.694Z,1035.73
2018-02-25T16:30:11.606Z,1035.70
2018-02-25T16:31:38.425Z,1035.72
2018-02-25T16:33:05.569Z,1035.69
2018-02-25T16:34:32.254Z,1035.72
2018-02-25T16:35:59.584Z,1035.72
2018-02-25T16:37:26.574Z,1035.72
2018-02-25T16:38:53.780Z,1035.73
2018-02-25T16:40:20.623Z,1035.72
2018-02-25T16:41:47.585Z,1035.75
2018-02-25T16:43:14.670Z,1035.72
2018-02-25T16:44:41.420Z,1035.74
2018-02-25T16:46:08.470Z,1035.76
2018-02-25T16:47:35.453Z,1035.77
2018-02-25T16:49:02.201Z,1035.79
2018-02-25T16:50:29.116Z,1035.79
2018-02-25T16:51:56.218Z,1035.79
2018-02-25T16:53:23.291Z,1035.80
2018-02-25T16:54:50.492Z,1035.80
2018-02-25T16:56:17.701Z,1035.84
2018-02-25T16:57:44.724Z,1035.87
2018-02-25T16:59:11.569Z,1035.89
2018-02-25T17:00:38.835Z,1035.94
2018-02-25T17:02:05.751Z,1035.92
2018-02-25T17:03:32.766Z,1035.96
2018-02-25T17:04:59.786Z,1035.95
2018-02-25T17:06:26.826Z,1035.99
2018-02-25T17:07:53.935Z,1035.99
2018-02-25T17:09:20.867Z,1036.00
2018-02-25T17:10:47.695Z,1036.03
2018-02-25T17:12:14.791Z,1036.03
2018-02-25T17:13:41.593Z,1036.03
2018-02-25T17:15:08.533Z,1036.06
2018-02-25T17:16:35.730Z,1036.09
2018-02-25T17:18:02.273Z,1036.12
2018-02-25T17:19:29.476Z,1036.09
2018-02-25T17:20:56.376Z,1036.09
2018-02-25T17:22:22.942Z,1036.15
2018-02-25T17:23:49.942Z,1036.14
2018-02-25T17:25:16.976Z,1036.11
2018-02-25T17:26:43.811Z,1036.13
2018-02-25T17:28:10.940Z,1036.11
2018-02-25T17:29:37.832Z,1036.13
2018-02-25T17:31:04.992Z,1036.12
2018-02-25T17:32:31.998Z,1036.16